Time;durP1;ratioP1;P1;durP2;ratioP2;P2;SDS_P1;SDS_P2;PMS_P1;PMS_P2;Temp;Humidity;BMP_temperature;BMP_pressure;BME280_temperature;BME280_humidity;BME280_pressure;Samples;Min_cycle;Max_cycle;Signal;HPM_P1;HPM_P2
2021/10/06 00:03:02;;;;;;;;;;;;;;;23.53;38.28;95725.56;5147875;23;19981;-62
2021/10/06 00:05:28;;;;;;;;;;;;;;;23.52;38.16;95726.81;4968203;28;19921;-62
2021/10/06 00:07:53;;;;;;;;;;;;;;;23.51;38.09;95726.06;4968705;28;19914;-62
2021/10/06 00:10:18;;;;;;;;;;;;;;;23.51;37.90;95730.75;4969400;28;19910;-62
2021/10/06 00:12:43;;;;;;;;;;;;;;;23.50;37.90;95721.09;4984138;28;19909;-62
2021/10/06 00:15:09;;;;;;;;;;;;;;;23.49;37.94;95714.16;4968886;28;19910;-62
2021/10/06 00:17:34;;;;;;;;;;;;;;;23.48;37.97;95721.59;4968850;28;20297;-62
2021/10/06 00:20:00;;;;;;;;;;;;;;;23.47;38.22;95711.19;4969045;28;19910;-63
2021/10/06 00:22:25;;;;;;;;;;;;;;;23.47;38.26;95708.47;4968626;28;20383;-62
2021/10/06 00:24:50;;;;;;;;;;;;;;;23.45;38.34;95702.75;4968117;28;19910;-62
2021/10/06 00:27:16;;;;;;;;;;;;;;;23.45;37.88;95689.09;4983215;28;20008;-62
2021/10/06 00:29:41;;;;;;;;;;;;;;;23.44;37.90;95691.09;4967844;28;19918;-62
2021/10/06 00:32:06;;;;;;;;;;;;;;;23.45;38.36;95694.56;4968336;28;20003;-62
2021/10/06 00:34:32;;;;;;;;;;;;;;;23.44;38.18;95709.44;4982718;28;19910;-62
2021/10/06 00:36:57;;;;;;;;;;;;;;;23.41;38.49;95700.25;4982897;28;19921;-62
2021/10/06 00:39:22;;;;;;;;;;;;;;;23.42;37.90;95706.44;4968169;28;19931;-62
2021/10/06 00:41:47;;;;;;;;;;;;;;;23.42;38.43;95701.00;4967968;28;19914;-63
2021/10/06 00:44:13;;;;;;;;;;;;;;;23.42;38.42;95690.09;4968745;28;19953;-63
2021/10/06 00:46:38;;;;;;;;;;;;;;;23.40;38.30;95693.31;4968331;28;20389;-62
2021/10/06 00:49:04;;;;;;;;;;;;;;;23.39;38.51;95680.94;4968193;28;19914;-62
2021/10/06 00:51:29;;;;;;;;;;;;;;;23.39;38.09;95686.38;4967826;28;19917;-62
2021/10/06 00:53:54;;;;;;;;;;;;;;;23.39;38.60;95685.63;4967791;28;19910;-62
2021/10/06 00:56:20;;;;;;;;;;;;;;;23.38;38.05;95684.91;4961952;28;19914;-62
2021/10/06 00:58:46;;;;;;;;;;;;;;;23.38;38.12;95678.72;4947711;29;19918;-63
2021/10/06 01:01:11;;;;;;;;;;;;;;;23.37;38.51;95671.75;4962928;28;19914;-62
2021/10/06 01:03:36;;;;;;;;;;;;;;;23.38;38.37;95678.72;4948613;29;19926;-62
2021/10/06 01:06:02;;;;;;;;;;;;;;;23.37;37.99;95671.75;4945863;28;19957;-61
2021/10/06 01:08:27;;;;;;;;;;;;;;;23.36;38.11;95664.81;4948617;29;20032;-62
2021/10/06 01:10:52;;;;;;;;;;;;;;;23.37;38.49;95660.84;4963417;28;20397;-62
2021/10/06 01:13:18;;;;;;;;;;;;;;;23.37;38.04;95671.75;4948294;28;19965;-62
2021/10/06 01:15:43;;;;;;;;;;;;;;;23.35;38.63;95668.78;4962779;28;19918;-62
2021/10/06 01:18:09;;;;;;;;;;;;;;;23.35;38.32;95673.47;4948650;29;19921;-62
2021/10/06 01:20:34;;;;;;;;;;;;;;;23.34;38.28;95661.84;4959057;28;19961;-62
2021/10/06 01:22:59;;;;;;;;;;;;;;;23.33;38.53;95660.34;4967862;28;19996;-62
2021/10/06 01:25:25;;;;;;;;;;;;;;;23.33;38.33;95657.63;4965611;28;19914;-62
2021/10/06 01:27:50;;;;;;;;;;;;;;;23.33;38.38;95665.78;4965599;28;19953;-62
2021/10/06 01:30:15;;;;;;;;;;;;;;;23.32;38.58;95658.88;4966869;28;19936;-63
2021/10/06 01:32:41;;;;;;;;;;;;;;;23.32;38.40;95669.78;4966575;28;19949;-62
2021/10/06 01:35:07;;;;;;;;;;;;;;;23.22;38.29;95649.44;4966724;28;19918;-62
2021/10/06 01:37:32;;;;;;;;;;;;;;;23.31;38.79;95662.81;4965894;28;20592;-62
2021/10/06 01:39:58;;;;;;;;;;;;;;;23.30;38.28;95655.88;4966206;28;19914;-62
2021/10/06 01:42:24;;;;;;;;;;;;;;;23.28;38.66;95658.38;4965916;28;19921;-62
2021/10/06 01:44:49;;;;;;;;;;;;;;;23.28;38.81;95658.38;4966299;28;19910;-62
2021/10/06 01:47:21;;;;;;;;;;;;;;;23.28;38.46;95663.81;4967224;28;19953;-62
2021/10/06 01:49:47;;;;;;;;;;;;;;;23.28;38.51;95663.81;4966280;28;20389;-62
2021/10/06 01:52:16;;;;;;;;;;;;;;;23.28;38.41;95655.63;4967215;28;20020;-62
2021/10/06 01:54:41;;;;;;;;;;;;;;;23.28;38.32;95663.81;4958950;28;19968;-62
2021/10/06 01:57:06;;;;;;;;;;;;;;;23.26;38.66;95655.41;4948054;29;19941;-62
2021/10/06 01:59:32;;;;;;;;;;;;;;;23.26;38.45;95666.28;4950170;28;19922;-62
2021/10/06 02:01:57;;;;;;;;;;;;;;;23.25;38.50;95659.34;4950718;28;19977;-61
2021/10/06 02:04:22;;;;;;;;;;;;;;;23.25;38.59;95653.91;4947003;29;20691;-60
2021/10/06 02:06:47;;;;;;;;;;;;;;;23.26;38.54;95671.75;4961961;28;19921;-61
2021/10/06 02:09:13;;;;;;;;;;;;;;;23.24;38.75;95668.75;4987099;28;20072;-61
2021/10/06 02:11:39;;;;;;;;;;;;;;;23.25;38.43;95659.34;4985665;28;19957;-61
2021/10/06 02:14:04;;;;;;;;;;;;;;;23.24;38.50;95663.28;4986779;28;19964;-62
2021/10/06 02:16:30;;;;;;;;;;;;;;;23.24;38.34;95657.13;4986252;28;19961;-62
2021/10/06 02:18:55;;;;;;;;;;;;;;;23.24;38.56;95663.28;4986653;28;20434;-62
2021/10/06 02:21:20;;;;;;;;;;;;;;;23.24;38.73;95668.75;4981012;28;19914;-62
2021/10/06 02:23:46;;;;;;;;;;;;;;;23.24;38.44;95663.28;4967818;28;19921;-63
2021/10/06 02:26:11;;;;;;;;;;;;;;;23.23;38.70;95667.28;4970330;28;19921;-64
2021/10/06 02:28:36;;;;;;;;;;;;;;;23.22;38.86;95665.78;4968712;28;19922;-62
2021/10/06 02:31:01;;;;;;;;;;;;;;;23.22;38.72;95671.22;4970447;28;20359;-62
2021/10/06 02:33:27;;;;;;;;;;;;;;;23.22;38.86;95671.22;4970061;28;20388;-62
2021/10/06 02:35:52;;;;;;;;;;;;;;;23.20;38.92;95673.72;4969976;28;20361;-62
2021/10/06 02:38:17;;;;;;;;;;;;;;;23.20;38.44;95673.72;4970614;28;19918;-62
2021/10/06 02:40:42;;;;;;;;;;;;;;;23.21;38.93;95669.72;4969704;28;20001;-62
2021/10/06 02:43:08;;;;;;;;;;;;;;;23.20;38.68;95668.25;4951670;28;19953;-62
2021/10/06 02:45:33;;;;;;;;;;;;;;;23.19;38.93;95661.31;4968930;28;19922;-62
2021/10/06 02:47:58;;;;;;;;;;;;;;;23.19;38.77;95658.59;4970245;28;19918;-63
2021/10/06 02:50:24;;;;;;;;;;;;;;;23.19;38.79;95666.75;4968956;28;19918;-61
2021/10/06 02:52:49;;;;;;;;;;;;;;;23.18;38.90;95665.25;4970355;28;19918;-62
2021/10/06 02:55:14;;;;;;;;;;;;;;;23.18;38.82;95664.53;4969661;28;20269;-62
2021/10/06 02:57:40;;;;;;;;;;;;;;;23.18;38.99;95664.53;4952149;28;20038;-62
2021/10/06 03:00:07;;;;;;;;;;;;;;;23.17;38.86;95658.34;4969449;28;20431;-62
2021/10/06 03:02:32;;;;;;;;;;;;;;;23.17;38.51;95663.03;4968324;28;20408;-62
2021/10/06 03:04:57;;;;;;;;;;;;;;;23.16;38.94;95662.28;4950855;29;19961;-62
2021/10/06 03:07:23;;;;;;;;;;;;;;;23.16;38.80;95659.56;4949609;28;19914;-62
2021/10/06 03:09:48;;;;;;;;;;;;;;;23.16;38.83;95651.41;4949526;29;20530;-62
2021/10/06 03:12:13;;;;;;;;;;;;;;;23.16;38.80;95659.56;4949938;29;19914;-62
2021/10/06 03:14:38;;;;;;;;;;;;;;;23.15;38.61;95670.97;4950856;29;19914;-62
2021/10/06 03:17:04;;;;;;;;;;;;;;;23.16;39.00;95662.28;4933400;29;20013;-62
2021/10/06 03:19:29;;;;;;;;;;;;;;;23.15;38.65;95644.47;4950906;29;19902;-62
2021/10/06 03:21:54;;;;;;;;;;;;;;;23.15;38.86;95660.06;4949134;29;20294;-62
2021/10/06 03:24:20;;;;;;;;;;;;;;;23.13;38.87;95652.38;4949319;28;19911;-61
2021/10/06 03:26:45;;;;;;;;;;;;;;;23.14;38.95;95653.88;4950758;29;19918;-62
2021/10/06 03:29:10;;;;;;;;;;;;;;;23.16;38.63;95656.84;4949283;28;19914;-61
2021/10/06 03:31:35;;;;;;;;;;;;;;;23.15;39.17;95655.38;4950425;29;20424;-62
2021/10/06 03:34:01;;;;;;;;;;;;;;;23.14;38.92;95659.31;4949129;29;20017;-62
2021/10/06 03:36:26;;;;;;;;;;;;;;;23.12;38.64;95656.38;4953820;28;20042;-62
2021/10/06 03:38:52;;;;;;;;;;;;;;;23.12;38.77;95656.38;4969051;28;19926;-62
2021/10/06 03:41:17;;;;;;;;;;;;;;;23.11;38.75;95654.88;4968511;28;19925;-62
2021/10/06 03:43:42;;;;;;;;;;;;;;;23.09;39.24;95657.34;4968484;28;19922;-61
2021/10/06 03:46:08;;;;;;;;;;;;;;;23.09;38.76;95657.34;4951122;28;20564;-61
2021/10/06 03:48:33;;;;;;;;;;;;;;;23.10;38.99;95645.19;4968192;28;19926;-61
2021/10/06 03:50:58;;;;;;;;;;;;;;;23.10;39.07;95653.38;4969360;28;19918;-62
2021/10/06 03:53:24;;;;;;;;;;;;;;;23.08;38.89;95650.41;4946491;28;19914;-62
2021/10/06 03:55:49;;;;;;;;;;;;;;;23.08;38.62;95650.41;4948636;29;20742;-62
2021/10/06 03:58:16;;;;;;;;;;;;;;;23.08;39.11;95655.84;4949260;29;19918;-62
2021/10/06 04:00:41;;;;;;;;;;;;;;;23.08;39.16;95655.84;4953266;28;19913;-62
2021/10/06 04:03:10;;;;;;;;;;;;;;;23.08;38.77;95661.28;4968934;28;19922;-62
2021/10/06 04:05:36;;;;;;;;;;;;;;;23.07;38.89;95654.34;4969277;28;19950;-62
2021/10/06 04:08:01;;;;;;;;;;;;;;;23.07;38.87;95648.91;4988531;28;19917;-62
2021/10/06 04:10:26;;;;;;;;;;;;;;;23.05;38.83;95645.94;4987584;28;20371;-63
2021/10/06 04:12:51;;;;;;;;;;;;;;;23.07;38.88;95648.91;4988566;28;20479;-62
2021/10/06 04:15:18;;;;;;;;;;;;;;;23.04;38.84;95644.44;4968850;28;19913;-63
2021/10/06 04:17:44;;;;;;;;;;;;;;;23.04;39.18;95633.53;4968747;28;20474;-63
2021/10/06 04:20:09;;;;;;;;;;;;;;;23.05;38.84;95640.47;4968810;28;19917;-62
2021/10/06 04:22:34;;;;;;;;;;;;;;;23.04;39.22;95633.53;4968540;28;20348;-63
2021/10/06 04:25:00;;;;;;;;;;;;;;;23.04;38.93;95632.81;4964019;28;19969;-63
2021/10/06 04:27:25;;;;;;;;;;;;;;;23.03;38.82;95626.63;4967963;28;19914;-63
2021/10/06 04:29:50;;;;;;;;;;;;;;;23.03;38.86;95642.97;4967414;28;19910;-63
2021/10/06 04:32:15;;;;;;;;;;;;;;;23.03;39.16;95637.53;4967901;28;20246;-63
2021/10/06 04:34:41;;;;;;;;;;;;;;;23.02;39.25;95630.56;4980116;28;20332;-63
2021/10/06 04:37:06;;;;;;;;;;;;;;;23.03;39.22;95632.06;4958506;28;19922;-62
2021/10/06 04:39:32;;;;;;;;;;;;;;;23.02;39.02;95625.13;4967058;28;20021;-63
2021/10/06 04:42:02;;;;;;;;;;;;;;;23.03;39.74;95626.63;4966531;28;19941;-64
2021/10/06 04:44:28;;;;;;;;;;;;;;;23.06;39.38;95625.63;4963122;28;20356;-62
2021/10/06 04:46:53;;;;;;;;;;;;;;;23.06;39.19;95631.09;4963904;28;19918;-62
2021/10/06 04:49:18;;;;;;;;;;;;;;;23.05;39.29;95629.59;4964010;28;20343;-64
2021/10/06 04:51:44;;;;;;;;;;;;;;;23.05;39.71;95623.41;4966331;28;19910;-63
2021/10/06 04:54:09;;;;;;;;;;;;;;;23.05;39.89;95629.59;4967493;28;21493;-62
2021/10/06 04:56:34;;;;;;;;;;;;;;;23.09;40.10;95635.56;4962747;28;20467;-64
2021/10/06 04:59:00;;;;;;;;;;;;;;;23.11;39.90;95638.50;4961545;28;20365;-70
2021/10/06 05:01:25;;;;;;;;;;;;;;;23.18;39.59;95638.03;4966407;28;19933;-62
2021/10/06 05:03:50;;;;;;;;;;;;;;;23.22;39.65;95638.53;4967689;28;20008;-62
2021/10/06 05:06:16;;;;;;;;;;;;;;;23.28;39.07;95647.47;4967878;28;20377;-63
2021/10/06 05:08:43;;;;;;;;;;;;;;;23.35;39.06;95636.09;4962190;28;19993;-63
2021/10/06 05:11:08;;;;;;;;;;;;;;;23.42;39.09;95641.03;4957843;28;19914;-64
2021/10/06 05:13:33;;;;;;;;;;;;;;;23.50;39.28;95636.59;4965161;28;19941;-62
2021/10/06 05:15:59;;;;;;;;;;;;;;;23.58;38.96;95632.13;4961464;28;19910;-63
2021/10/06 05:18:24;;;;;;;;;;;;;;;23.65;38.93;95631.69;4936938;28;20086;-61
2021/10/06 05:20:49;;;;;;;;;;;;;;;23.73;38.26;95617.03;4949215;28;19910;-63
2021/10/06 05:23:14;;;;;;;;;;;;;;;23.81;38.40;95633.63;4951472;28;20297;-63
2021/10/06 05:25:40;;;;;;;;;;;;;;;23.87;38.49;95627.69;4950175;28;19965;-63
2021/10/06 05:28:05;;;;;;;;;;;;;;;23.95;38.53;95623.22;4962796;28;19977;-62
2021/10/06 05:30:30;;;;;;;;;;;;;;;24.03;39.14;95613.25;4938303;29;19915;-62
2021/10/06 05:32:56;;;;;;;;;;;;;;;24.13;39.15;95616.50;4947723;29;20653;-62
2021/10/06 05:35:21;;;;;;;;;;;;;;;24.17;42.16;95612.25;4959711;28;20301;-62
2021/10/06 05:37:46;;;;;;;;;;;;;;;24.22;39.79;95619.69;4967314;28;19914;-62
2021/10/06 05:40:12;;;;;;;;;;;;;;;24.27;40.17;95605.28;4967084;28;19921;-62
2021/10/06 05:42:37;;;;;;;;;;;;;;;24.31;39.79;95611.22;4967341;28;20029;-63
2021/10/06 05:45:02;;;;;;;;;;;;;;;24.38;39.62;95618.94;4966983;28;19918;-63
2021/10/06 05:47:28;;;;;;;;;;;;;;;24.42;38.71;95622.13;4966914;28;19925;-62
2021/10/06 05:49:54;;;;;;;;;;;;;;;24.49;39.05;95610.72;4949824;28;19922;-68
2021/10/06 05:52:20;;;;;;;;;;;;;;;24.53;39.01;95616.66;4945352;28;19974;-66
2021/10/06 05:54:45;;;;;;;;;;;;;;;24.58;39.81;95618.63;4933673;28;20306;-63
2021/10/06 05:57:10;;;;;;;;;;;;;;;24.62;39.43;95619.06;4927946;28;20346;-65
2021/10/06 05:59:35;;;;;;;;;;;;;;;24.65;39.06;95623.53;4943517;29;19973;-71
2021/10/06 06:02:01;;;;;;;;;;;;;;;24.68;39.03;95628.00;4947645;29;19914;-62
2021/10/06 06:04:27;;;;;;;;;;;;;;;24.73;39.42;95629.97;4960787;28;20012;-63
2021/10/06 06:06:52;;;;;;;;;;;;;;;24.79;39.69;95619.78;4938624;28;19924;-63
2021/10/06 06:09:20;;;;;;;;;;;;;;;24.83;39.06;95631.91;4951221;28;20343;-63
2021/10/06 06:11:46;;;;;;;;;;;;;;;24.89;39.37;95622.44;4951193;28;19910;-63
2021/10/06 06:14:11;;;;;;;;;;;;;;;24.95;39.14;95619.69;4956137;28;19969;-62
2021/10/06 06:16:36;;;;;;;;;;;;;;;24.98;38.20;95622.16;4929119;28;19919;-63
2021/10/06 06:19:02;;;;;;;;;;;;;;;25.01;37.86;95623.91;4931417;28;20301;-62
2021/10/06 06:21:27;;;;;;;;;;;;;;;25.08;38.08;95612.44;4915733;29;19921;-63
2021/10/06 06:23:52;;;;;;;;;;;;;;;25.11;37.58;95627.06;4934912;28;20405;-63
2021/10/06 06:26:18;;;;;;;;;;;;;;;25.14;37.43;95637.75;4928943;28;19919;-63
2021/10/06 06:28:43;;;;;;;;;;;;;;;25.16;37.17;95624.31;4912037;29;19954;-63
2021/10/06 06:31:08;;;;;;;;;;;;;;;25.17;37.69;95620.34;4929545;28;19918;-64
2021/10/06 06:33:34;;;;;;;;;;;;;;;25.19;37.05;95633.50;4931938;28;19919;-62
2021/10/06 06:36:04;;;;;;;;;;;;;;;25.23;36.97;95615.59;4934591;28;19911;-63
2021/10/06 06:38:29;;;;;;;;;;;;;;;25.25;36.87;95632.22;4930680;28;19993;-63
2021/10/06 06:40:54;;;;;;;;;;;;;;;25.26;37.04;95624.75;4913060;29;20489;-62
2021/10/06 06:43:19;;;;;;;;;;;;;;;25.31;36.59;95630.19;4929722;28;19918;-65
2021/10/06 06:45:45;;;;;;;;;;;;;;;25.36;37.06;95621.19;4935116;28;19915;-63
2021/10/06 06:48:10;;;;;;;;;;;;;;;25.35;36.48;95625.16;4928994;28;20313;-63
2021/10/06 06:50:36;;;;;;;;;;;;;;;25.31;36.19;95624.72;4925905;28;20013;-63
2021/10/06 06:53:07;;;;;;;;;;;;;;;25.34;36.33;95623.69;4929015;28;19915;-63
2021/10/06 06:55:32;;;;;;;;;;;;;;;25.34;36.10;95618.22;4932781;28;20309;-62
2021/10/06 06:58:01;;;;;;;;;;;;;;;25.26;36.12;95617.31;4918705;28;19923;-62
2021/10/06 07:00:26;;;;;;;;;;;;;;;25.28;36.25;95625.72;4917900;29;19938;-62
2021/10/06 07:02:54;;;;;;;;;;;;;;;25.25;36.27;95610.34;4936719;28;19922;-62
2021/10/06 07:05:20;;;;;;;;;;;;;;;25.26;36.26;95617.31;4949189;28;19914;-71
2021/10/06 07:07:47;;;;;;;;;;;;;;;25.16;36.43;95618.13;4949746;28;19929;-63
2021/10/06 07:10:13;;;;;;;;;;;;;;;25.08;36.46;95634.31;4952031;28;20360;-62
2021/10/06 07:12:38;;;;;;;;;;;;;;;25.04;36.47;95628.34;4961070;28;19914;-62
2021/10/06 07:15:04;;;;;;;;;;;;;;;24.97;36.48;95634.31;4964242;28;19942;-64
2021/10/06 07:17:29;;;;;;;;;;;;;;;24.94;36.23;95640.06;4951671;28;20290;-63
2021/10/06 07:19:54;;;;;;;;;;;;;;;24.90;36.49;95640.34;4952350;28;19924;-63
2021/10/06 07:22:19;;;;;;;;;;;;;;;24.84;36.31;95664.19;4958194;28;19960;-63
2021/10/06 07:24:45;;;;;;;;;;;;;;;24.80;36.32;95651.28;4968676;28;19920;-63
2021/10/06 07:27:10;;;;;;;;;;;;;;;24.73;36.56;95651.84;4966434;28;19973;-63
2021/10/06 07:29:36;;;;;;;;;;;;;;;24.69;36.25;95645.88;4969040;28;19928;-63
2021/10/06 07:32:01;;;;;;;;;;;;;;;24.64;36.96;95643.91;4964906;28;19949;-63
2021/10/06 07:34:27;;;;;;;;;;;;;;;24.59;36.78;95652.88;4961603;28;19924;-63
2021/10/06 07:36:52;;;;;;;;;;;;;;;24.53;36.85;95655.63;4969245;28;20292;-63
2021/10/06 07:39:17;;;;;;;;;;;;;;;24.49;36.81;95662.59;4961698;28;19967;-62
2021/10/06 07:41:43;;;;;;;;;;;;;;;24.46;36.89;95660.84;4951702;28;19925;-63
2021/10/06 07:44:08;;;;;;;;;;;;;;;24.43;36.68;95653.66;4957504;28;19924;-64
2021/10/06 07:46:33;;;;;;;;;;;;;;;24.38;36.57;95648.97;4950167;28;19980;-63
2021/10/06 07:48:59;;;;;;;;;;;;;;;24.33;36.88;95657.91;4953067;28;19918;-63
2021/10/06 07:51:24;;;;;;;;;;;;;;;24.29;37.17;95668.31;4949810;28;19914;-63
2021/10/06 07:53:49;;;;;;;;;;;;;;;24.28;36.71;95666.81;4949570;28;19945;-63
2021/10/06 07:56:15;;;;;;;;;;;;;;;24.25;37.28;95667.81;4952164;28;19910;-63
2021/10/06 07:58:40;;;;;;;;;;;;;;;24.22;37.34;95671.53;4950677;28;20086;-63
2021/10/06 08:01:05;;;;;;;;;;;;;;;24.19;37.41;95669.81;4952341;28;19921;-63
2021/10/06 08:03:30;;;;;;;;;;;;;;;24.17;37.33;95669.56;4969290;28;20001;-63
2021/10/06 08:05:56;;;;;;;;;;;;;;;24.15;36.89;95668.56;4968686;28;20360;-63
2021/10/06 08:08:26;;;;;;;;;;;;;;;24.13;37.45;95663.63;4969143;28;20140;-63
2021/10/06 08:10:51;;;;;;;;;;;;;;;24.11;37.46;95668.84;4968909;28;19929;-63
2021/10/06 08:13:17;;;;;;;;;;;;;;;24.08;37.47;95669.84;4968921;28;19918;-63
2021/10/06 08:15:42;;;;;;;;;;;;;;;24.08;37.49;95669.06;4968241;28;19914;-63
2021/10/06 08:18:07;;;;;;;;;;;;;;;24.05;37.24;95665.38;4968482;28;19945;-63
2021/10/06 08:20:33;;;;;;;;;;;;;;;24.04;37.24;95680.25;4954963;28;19910;-63
2021/10/06 08:23:02;;;;;;;;;;;;;;;24.02;37.43;95671.06;4949129;28;19921;-63
2021/10/06 08:25:27;;;;;;;;;;;;;;;24.00;37.47;95674.28;4949014;28;19968;-63
2021/10/06 08:27:54;;;;;;;;;;;;;;;23.98;37.11;95671.31;4949330;29;19918;-63
2021/10/06 08:30:19;;;;;;;;;;;;;;;23.97;37.16;95669.81;4950713;28;19914;-63
2021/10/06 08:32:45;;;;;;;;;;;;;;;23.96;37.30;95662.13;4949718;29;19926;-63
2021/10/06 08:35:10;;;;;;;;;;;;;;;23.94;37.17;95659.91;4965831;28;19924;-63
2021/10/06 08:37:35;;;;;;;;;;;;;;;23.93;37.48;95661.16;4951246;28;19937;-63
2021/10/06 08:40:02;;;;;;;;;;;;;;;23.92;37.06;95662.41;4949069;29;19914;-63
2021/10/06 08:42:28;;;;;;;;;;;;;;;23.93;37.12;95658.44;4951389;28;19929;-64
2021/10/06 08:44:53;;;;;;;;;;;;;;;23.92;37.38;95667.84;4967395;28;19938;-63
2021/10/06 08:47:19;;;;;;;;;;;;;;;23.92;37.22;95661.66;4949182;28;19923;-63
2021/10/06 08:49:45;;;;;;;;;;;;;;;23.91;37.60;95660.91;4955271;28;19921;-63
2021/10/06 08:52:10;;;;;;;;;;;;;;;23.90;37.05;95664.88;4950909;28;19956;-62
2021/10/06 08:54:35;;;;;;;;;;;;;;;23.90;36.99;95653.97;4959985;28;19926;-63
2021/10/06 08:57:00;;;;;;;;;;;;;;;23.90;37.59;95647.75;4952701;28;20352;-63
2021/10/06 08:59:25;;;;;;;;;;;;;;;23.91;37.63;95652.72;4952321;28;19914;-62
2021/10/06 09:01:51;;;;;;;;;;;;;;;23.90;37.51;95659.44;4954598;28;19918;-70
2021/10/06 09:04:16;;;;;;;;;;;;;;;23.90;37.91;95648.53;4961349;28;20377;-71
2021/10/06 09:06:45;;;;;;;;;;;;;;;23.91;37.96;95643.78;4960441;28;19918;-71
2021/10/06 09:09:14;;;;;;;;;;;;;;;23.95;38.00;95645.03;4968405;28;19921;-72
2021/10/06 09:11:40;;;;;;;;;;;;;;;23.94;37.75;95643.53;4966626;28;20054;-69
2021/10/06 09:14:06;;;;;;;;;;;;;;;23.95;37.86;95650.50;4978207;28;20690;-69
2021/10/06 09:16:32;;;;;;;;;;;;;;;23.99;37.95;95661.91;4967192;28;20000;-70
2021/10/06 09:18:57;;;;;;;;;;;;;;;24.01;38.06;95643.03;4967471;28;20016;-70
2021/10/06 09:21:22;;;;;;;;;;;;;;;24.08;38.22;95652.69;4956037;28;20296;-70
2021/10/06 09:23:48;;;;;;;;;;;;;;;24.14;38.02;95651.47;4950537;28;20013;-71
2021/10/06 09:26:13;;;;;;;;;;;;;;;24.21;38.01;95656.41;4967150;28;20042;-69
2021/10/06 09:28:42;;;;;;;;;;;;;;;24.32;38.47;95650.94;4964177;28;19922;-70
2021/10/06 09:31:08;;;;;;;;;;;;;;;24.42;38.11;95655.66;4955442;28;19917;-71
2021/10/06 09:33:37;;;;;;;;;;;;;;;24.52;38.12;95648.66;4966769;28;19941;-71
2021/10/06 09:36:06;;;;;;;;;;;;;;;24.57;37.61;95638.97;4967701;28;19913;-71
2021/10/06 09:38:58;;;;;;;;;;;;;;;24.72;37.27;95650.34;4951635;28;19910;-70
2021/10/06 09:41:37;;;;;;;;;;;;;;;24.80;37.10;95662.22;4962719;28;19918;-70
2021/10/06 09:44:02;;;;;;;;;;;;;;;24.91;37.21;95655.47;4959896;28;19919;-73
2021/10/06 09:46:34;;;;;;;;;;;;;;;24.98;36.91;95644.00;4967062;28;19921;-70
2021/10/06 09:48:59;;;;;;;;;;;;;;;25.08;36.88;95634.31;4948904;28;20397;-70
2021/10/06 09:51:25;;;;;;;;;;;;;;;25.16;36.78;95635.25;4950752;28;19925;-69
2021/10/06 09:53:50;;;;;;;;;;;;;;;25.25;36.59;95631.47;4948899;28;19921;-69
2021/10/06 09:56:16;;;;;;;;;;;;;;;25.39;36.42;95625.66;4951093;28;19918;-70
2021/10/06 09:58:41;;;;;;;;;;;;;;;25.46;36.11;95622.38;4939293;28;19918;-69
2021/10/06 10:01:07;;;;;;;;;;;;;;;25.51;36.17;95625.06;4967088;28;19921;-71
2021/10/06 10:03:32;;;;;;;;;;;;;;;25.63;35.77;95623.00;4949363;28;19922;-72
2021/10/06 10:05:57;;;;;;;;;;;;;;;25.73;35.80;95621.47;4943289;28;19914;-71
2021/10/06 10:08:22;;;;;;;;;;;;;;;25.76;35.78;95614.97;4966676;28;20089;-73
2021/10/06 10:10:48;;;;;;;;;;;;;;;25.83;35.70;95610.41;4965125;28;20334;-73
2021/10/06 10:13:13;;;;;;;;;;;;;;;25.82;35.48;95608.91;4946833;28;19973;-75
2021/10/06 10:15:38;;;;;;;;;;;;;;;25.94;35.55;95604.09;4966898;28;20384;-73
2021/10/06 10:18:04;;;;;;;;;;;;;;;25.98;35.36;95599.81;4966906;28;19925;-73
2021/10/06 10:20:31;;;;;;;;;;;;;;;26.01;35.19;95609.75;4967107;28;20451;-72
2021/10/06 10:22:57;;;;;;;;;;;;;;;26.07;35.13;95596.75;4949665;28;19938;-71
2021/10/06 10:25:29;;;;;;;;;;;;;;;26.11;34.91;95608.13;4946164;28;19983;-72
2021/10/06 10:27:58;;;;;;;;;;;;;;;26.16;34.90;95615.56;4958347;28;19921;-71
2021/10/06 10:30:23;;;;;;;171.23;110.10;;;;;;;26.19;34.83;95608.31;4962356;28;19920;-71
2021/10/06 10:32:49;;;;;;;;;;;;;;;26.17;34.64;95608.81;4949651;28;20030;-71
2021/10/06 10:35:14;;;;;;;;;;;;;;;26.26;34.74;95592.06;4957345;28;19969;-73
2021/10/06 10:37:49;;;;;;;;;;;;;;;26.31;34.62;95605.00;4948537;28;19918;-73
2021/10/06 10:40:32;;;;;;;;;;;;;;;26.31;34.61;95594.03;4950476;28;19925;-72
2021/10/06 10:43:09;;;;;;;;;;;;;;;26.36;34.69;95595.97;4948626;28;19915;-71
2021/10/06 10:45:48;;;;;;;;;;;;;;;26.37;34.55;95597.47;4951351;28;19910;-72
2021/10/06 10:48:15;;;;;;;;;;;;;;;26.39;34.39;95600.41;4954094;28;20012;-71
2021/10/06 10:51:00;;;;;;;;;;;;;;;26.42;34.37;95600.13;4954306;28;20309;-71
2021/10/06 10:53:44;;;;;;;;;;;;;;;26.42;34.17;95591.91;4952090;28;19914;-71
2021/10/06 10:56:12;;;;;;;;;;;;;;;26.51;34.02;95601.78;4960263;28;20562;-71
2021/10/06 10:58:40;;;;;;;;;;;;;;;26.51;33.95;95590.81;4969475;28;19914;-70
2021/10/06 11:01:06;;;;;;;;;;;;;;;26.57;33.86;95584.00;4965803;28;20048;-72
2021/10/06 11:03:32;;;;;;;;;;;;;;;26.59;33.90;95586.22;4960200;28;20420;-71
2021/10/06 11:05:57;;;;;;;;;;;;;;;26.66;33.59;95575.44;4959409;28;19918;-70
2021/10/06 11:08:26;;;;;;;;;;;;;;;26.65;33.80;95573.19;4955110;28;20357;-70
2021/10/06 11:11:07;;;;;;;;;;;;;;;26.63;33.53;95570.25;4953015;28;19924;-70
2021/10/06 11:13:33;;;;;;;;;;;;;;;26.69;33.48;95568.19;4952778;28;20624;-70
2021/10/06 11:15:58;;;;;;;;;;;;;;;26.70;33.41;95569.66;4957374;28;20008;-70
2021/10/06 11:18:25;;;;;;;;;;;;;;;26.65;33.54;95562.25;4970212;28;20009;-69
2021/10/06 11:20:56;;;;;;;;;;;;;;;26.62;33.73;95564.03;4967596;28;20353;-70
2021/10/06 11:23:31;;;;;;;;;;;;;;;26.62;33.52;95560.53;4969614;28;19996;-70
2021/10/06 11:26:08;;;;;;;;;;;;;;;26.52;33.68;95559.44;4968843;28;19961;-71
2021/10/06 11:28:37;;;;;;;;;;;;;;;26.45;33.46;95560.00;4969714;28;19918;-72
2021/10/06 11:31:02;;;;;;;;;;;;;;;26.42;33.48;95555.56;4951613;28;19914;-70
2021/10/06 11:33:28;;;;;;;;;;;;;;;26.39;33.74;95562.81;4952234;28;19917;-70
2021/10/06 11:36:12;;;;;;;;;;;;;;;26.35;33.82;95556.88;4969520;28;19914;-70
2021/10/06 11:38:38;;;;;;;;;;;;;;;26.26;33.91;95545.50;4969775;28;19913;-69
2021/10/06 11:41:03;;;;;;;;;;;;;;;26.24;33.82;95539.81;4953230;28;19913;-69
2021/10/06 11:43:43;;;;;;;;;;;;;;;26.19;34.06;95543.38;4956914;28;19924;-70
2021/10/06 11:46:16;;;;;;;;;;;;;;;26.11;33.92;95542.44;4952856;28;20060;-70
2021/10/06 11:48:41;;;;;;;;;;;;;;;26.05;34.16;95544.53;4951459;28;19918;-71
2021/10/06 11:51:06;;;;;;;;;;;;;;;26.01;34.18;95544.06;4965655;28;19921;-70
2021/10/06 11:53:42;;;;;;;;;;;;;;;26.00;34.23;95531.63;4969292;28;19918;-72
2021/10/06 11:56:07;;;;;;;;;;;;;;;25.96;34.23;95531.19;4968921;28;20317;-71
2021/10/06 11:58:33;;;;;;;;;;;;;;;25.90;34.35;95516.81;4959399;28;20308;-69
2021/10/06 12:01:05;;;;;;;;;;;;;;;25.85;34.15;95525.06;4951175;28;19925;-70
2021/10/06 12:03:37;;;;;;;;;;;;;;;25.85;34.41;95519.59;4956008;28;20006;-71
2021/10/06 12:06:02;;;;;;;;;;;;;;;25.83;34.46;95525.59;4951496;28;19914;-71
2021/10/06 12:08:28;;;;;;;;;;;;;;;25.77;34.56;95512.47;4957575;28;19975;-70
2021/10/06 12:10:53;;;;;;;;;;;;;;;25.72;34.76;95521.47;4962255;28;20333;-70
2021/10/06 12:13:35;;;;;;;;;;;;;;;25.66;34.57;95526.25;4968356;28;20605;-70
2021/10/06 12:16:01;;;;;;;;;;;;;;;25.62;34.67;95512.06;4967690;28;19976;-70
2021/10/06 12:18:26;;;;;;;;;;;;;;;25.58;34.62;95512.38;4965206;28;19918;-70
2021/10/06 12:20:51;;;;;;;;;;;;;;;25.57;34.81;95515.63;4968141;28;20061;-70
2021/10/06 12:23:23;;;;;;;;;;;;;;;25.53;34.65;95506.94;4968184;28;20005;-71
2021/10/06 12:25:52;;;;;;;;;;;;;;;25.48;34.85;95511.22;4966289;28;19910;-70
2021/10/06 12:28:19;;;;;;;;;;;;;;;25.38;35.04;95492.91;4968097;28;19918;-69
2021/10/06 12:30:44;;;;;;;;;;;;;;;25.41;34.93;95502.81;4967475;28;19914;-69
2021/10/06 12:33:10;;;;;;;;;;;;;;;25.42;35.02;95501.59;4966672;28;20593;-69
2021/10/06 12:35:42;;;;;;;;;;;;;;;25.38;34.84;95498.38;4967510;28;19964;-70
2021/10/06 12:38:07;;;;;;;;;;;;;;;25.36;35.24;95501.63;4968046;28;20320;-69
2021/10/06 12:40:33;;;;;;;;;;;;;;;25.37;35.12;95488.72;4964480;28;19922;-71
2021/10/06 12:43:14;;;;;;;;;;;;;;;25.34;35.01;95492.47;4967710;28;19910;-71